sensor_id;sensor_type;location;lat;lon;timestamp;temperature;humidity
6738;DHT22;3406;49.902;8.596;2022-12-20T00:01:46;2.50;99.90
6738;DHT22;3406;49.902;8.596;2022-12-20T00:04:12;2.50;99.90
6738;DHT22;3406;49.902;8.596;2022-12-20T00:06:40;2.50;99.90
6738;DHT22;3406;49.902;8.596;2022-12-20T00:09:08;2.50;99.90
6738;DHT22;3406;49.902;8.596;2022-12-20T00:11:38;2.50;99.90
6738;DHT22;3406;49.902;8.596;2022-12-20T00:14:05;2.50;99.90
6738;DHT22;3406;49.902;8.596;2022-12-20T00:16:32;2.50;99.90
6738;DHT22;3406;49.902;8.596;2022-12-20T00:19:00;2.50;99.90
6738;DHT22;3406;49.902;8.596;2022-12-20T00:21:29;2.50;99.90
6738;DHT22;3406;49.902;8.596;2022-12-20T00:23:57;2.50;99.90
6738;DHT22;3406;49.902;8.596;2022-12-20T00:26:26;2.50;99.90
6738;DHT22;3406;49.902;8.596;2022-12-20T00:28:53;2.40;99.90
6738;DHT22;3406;49.902;8.596;2022-12-20T00:31:22;2.40;99.90
6738;DHT22;3406;49.902;8.596;2022-12-20T00:33:51;2.40;99.90
6738;DHT22;3406;49.902;8.596;2022-12-20T00:36:18;2.50;99.90
6738;DHT22;3406;49.902;8.596;2022-12-20T00:38:46;2.50;99.90
6738;DHT22;3406;49.902;8.596;2022-12-20T00:41:15;2.50;99.90
6738;DHT22;3406;49.902;8.596;2022-12-20T00:43:42;2.60;99.90
6738;DHT22;3406;49.902;8.596;2022-12-20T00:46:15;2.60;99.90
6738;DHT22;3406;49.902;8.596;2022-12-20T00:48:42;2.60;99.90
6738;DHT22;3406;49.902;8.596;2022-12-20T00:51:10;2.60;99.90
6738;DHT22;3406;49.902;8.596;2022-12-20T00:53:38;2.60;99.90
6738;DHT22;3406;49.902;8.596;2022-12-20T00:56:06;2.50;99.90
6738;DHT22;3406;49.902;8.596;2022-12-20T00:58:36;2.60;99.90
6738;DHT22;3406;49.902;8.596;2022-12-20T01:01:03;2.60;99.90
6738;DHT22;3406;49.902;8.596;2022-12-20T01:03:30;2.60;99.90
6738;DHT22;3406;49.902;8.596;2022-12-20T01:05:59;2.70;99.90
6738;DHT22;3406;49.902;8.596;2022-12-20T01:08:27;2.70;99.90
6738;DHT22;3406;49.902;8.596;2022-12-20T01:10:58;2.70;99.90
6738;DHT22;3406;49.902;8.596;2022-12-20T01:13:26;2.60;99.90
6738;DHT22;3406;49.902;8.596;2022-12-20T01:15:54;2.60;99.90
6738;DHT22;3406;49.902;8.596;2022-12-20T01:18:21;2.60;99.90
6738;DHT22;3406;49.902;8.596;2022-12-20T01:20:48;2.60;99.90
6738;DHT22;3406;49.902;8.596;2022-12-20T01:23:15;2.50;99.90
6738;DHT22;3406;49.902;8.596;2022-12-20T01:25:41;2.60;99.90
6738;DHT22;3406;49.902;8.596;2022-12-20T01:28:09;2.60;99.90
6738;DHT22;3406;49.902;8.596;2022-12-20T01:30:39;2.60;99.90
6738;DHT22;3406;49.902;8.596;2022-12-20T01:33:07;2.60;99.90
6738;DHT22;3406;49.902;8.596;2022-12-20T01:35:33;2.60;99.90
6738;DHT22;3406;49.902;8.596;2022-12-20T01:38:00;2.60;99.90
6738;DHT22;3406;49.902;8.596;2022-12-20T01:40:27;2.60;99.90
6738;DHT22;3406;49.902;8.596;2022-12-20T01:42:53;2.60;99.90
6738;DHT22;3406;49.902;8.596;2022-12-20T01:45:25;2.70;99.90
6738;DHT22;3406;49.902;8.596;2022-12-20T01:47:52;2.70;99.90
6738;DHT22;3406;49.902;8.596;2022-12-20T01:50:21;2.70;99.90
6738;DHT22;3406;49.902;8.596;2022-12-20T01:52:48;2.70;99.90
6738;DHT22;3406;49.902;8.596;2022-12-20T01:55:18;2.70;99.90
6738;DHT22;3406;49.902;8.596;2022-12-20T01:57:48;2.70;99.90
6738;DHT22;3406;49.902;8.596;2022-12-20T02:00:17;2.60;99.90
6738;DHT22;3406;49.902;8.596;2022-12-20T02:02:46;2.60;99.90
6738;DHT22;3406;49.902;8.596;2022-12-20T02:05:14;2.70;99.90
6738;DHT22;3406;49.902;8.596;2022-12-20T02:07:42;2.70;99.90
6738;DHT22;3406;49.902;8.596;2022-12-20T02:10:11;2.70;99.90
6738;DHT22;3406;49.902;8.596;2022-12-20T02:12:41;2.70;99.90
6738;DHT22;3406;49.902;8.596;2022-12-20T02:15:22;2.80;99.90
6738;DHT22;3406;49.902;8.596;2022-12-20T02:18:00;2.70;99.90
6738;DHT22;3406;49.902;8.596;2022-12-20T02:27:00;2.80;99.90
6738;DHT22;3406;49.902;8.596;2022-12-20T02:29:34;2.80;99.90
6738;DHT22;3406;49.902;8.596;2022-12-20T02:32:07;2.80;99.90
6738;DHT22;3406;49.902;8.596;2022-12-20T02:34:36;2.80;99.90
6738;DHT22;3406;49.902;8.596;2022-12-20T02:37:03;2.80;99.90
6738;DHT22;3406;49.902;8.596;2022-12-20T02:39:31;2.80;99.90
6738;DHT22;3406;49.902;8.596;2022-12-20T02:42:02;2.80;99.90
6738;DHT22;3406;49.902;8.596;2022-12-20T02:44:31;2.70;99.90
6738;DHT22;3406;49.902;8.596;2022-12-20T02:47:26;2.80;99.90
6738;DHT22;3406;49.902;8.596;2022-12-20T02:49:54;2.80;99.90
6738;DHT22;3406;49.902;8.596;2022-12-20T02:52:23;2.80;99.90
6738;DHT22;3406;49.902;8.596;2022-12-20T02:54:55;2.80;99.90
6738;DHT22;3406;49.902;8.596;2022-12-20T02:57:26;2.90;99.90
6738;DHT22;3406;49.902;8.596;2022-12-20T02:59:57;2.90;99.90
6738;DHT22;3406;49.902;8.596;2022-12-20T03:02:29;2.90;99.90
6738;DHT22;3406;49.902;8.596;2022-12-20T03:05:20;3.00;99.90
6738;DHT22;3406;49.902;8.596;2022-12-20T03:07:47;3.00;99.90
6738;DHT22;3406;49.902;8.596;2022-12-20T03:10:14;3.00;99.90
6738;DHT22;3406;49.902;8.596;2022-12-20T03:12:41;2.90;99.90
6738;DHT22;3406;49.902;8.596;2022-12-20T03:15:08;3.00;99.90
6738;DHT22;3406;49.902;8.596;2022-12-20T03:17:36;2.90;99.90
6738;DHT22;3406;49.902;8.596;2022-12-20T03:20:05;2.90;99.90
6738;DHT22;3406;49.902;8.596;2022-12-20T03:22:32;2.90;99.90
6738;DHT22;3406;49.902;8.596;2022-12-20T03:24:59;2.90;99.90
6738;DHT22;3406;49.902;8.596;2022-12-20T03:27:26;2.80;99.90
6738;DHT22;3406;49.902;8.596;2022-12-20T03:29:53;2.80;99.90
6738;DHT22;3406;49.902;8.596;2022-12-20T03:32:20;2.80;99.90
6738;DHT22;3406;49.902;8.596;2022-12-20T03:34:48;2.80;99.90
6738;DHT22;3406;49.902;8.596;2022-12-20T03:37:15;2.80;99.90
6738;DHT22;3406;49.902;8.596;2022-12-20T03:39:41;2.90;99.90
6738;DHT22;3406;49.902;8.596;2022-12-20T03:42:08;2.90;99.90
6738;DHT22;3406;49.902;8.596;2022-12-20T03:44:35;2.90;99.90
6738;DHT22;3406;49.902;8.596;2022-12-20T03:47:02;2.90;99.90
6738;DHT22;3406;49.902;8.596;2022-12-20T03:49:28;2.90;99.90
6738;DHT22;3406;49.902;8.596;2022-12-20T03:51:56;2.90;99.90
6738;DHT22;3406;49.902;8.596;2022-12-20T03:54:23;2.90;99.90
6738;DHT22;3406;49.902;8.596;2022-12-20T03:56:50;2.90;99.90
6738;DHT22;3406;49.902;8.596;2022-12-20T03:59:17;2.90;99.90
6738;DHT22;3406;49.902;8.596;2022-12-20T04:01:44;3.00;99.90
6738;DHT22;3406;49.902;8.596;2022-12-20T04:04:12;3.00;99.90
6738;DHT22;3406;49.902;8.596;2022-12-20T04:06:39;3.00;99.90
6738;DHT22;3406;49.902;8.596;2022-12-20T04:09:07;3.00;99.90
6738;DHT22;3406;49.902;8.596;2022-12-20T04:11:34;3.00;99.90
6738;DHT22;3406;49.902;8.596;2022-12-20T04:14:01;3.00;99.90
6738;DHT22;3406;49.902;8.596;2022-12-20T04:16:28;3.00;99.90
6738;DHT22;3406;49.902;8.596;2022-12-20T04:18:56;3.00;99.90
6738;DHT22;3406;49.902;8.596;2022-12-20T04:21:24;3.00;99.90
6738;DHT22;3406;49.902;8.596;2022-12-20T04:23:51;3.00;99.90
6738;DHT22;3406;49.902;8.596;2022-12-20T04:26:19;3.00;99.90
6738;DHT22;3406;49.902;8.596;2022-12-20T04:28:46;2.90;99.90
6738;DHT22;3406;49.902;8.596;2022-12-20T04:31:13;2.90;99.90
6738;DHT22;3406;49.902;8.596;2022-12-20T04:33:40;2.90;99.90
6738;DHT22;3406;49.902;8.596;2022-12-20T04:36:07;2.90;99.90
6738;DHT22;3406;49.902;8.596;2022-12-20T04:38:34;2.90;99.90
6738;DHT22;3406;49.902;8.596;2022-12-20T04:41:01;2.90;99.90
6738;DHT22;3406;49.902;8.596;2022-12-20T04:43:29;2.90;99.90
6738;DHT22;3406;49.902;8.596;2022-12-20T04:45:56;2.90;99.90
6738;DHT22;3406;49.902;8.596;2022-12-20T04:48:23;2.90;99.90
6738;DHT22;3406;49.902;8.596;2022-12-20T04:50:52;2.90;99.90
6738;DHT22;3406;49.902;8.596;2022-12-20T04:53:19;2.90;99.90
6738;DHT22;3406;49.902;8.596;2022-12-20T04:56:03;2.90;99.90
6738;DHT22;3406;49.902;8.596;2022-12-20T04:58:31;2.90;99.90
6738;DHT22;3406;49.902;8.596;2022-12-20T05:00:58;2.90;99.90
6738;DHT22;3406;49.902;8.596;2022-12-20T05:03:25;2.90;99.90
6738;DHT22;3406;49.902;8.596;2022-12-20T05:05:52;2.90;99.90
6738;DHT22;3406;49.902;8.596;2022-12-20T05:08:19;2.90;99.90
6738;DHT22;3406;49.902;8.596;2022-12-20T05:10:46;3.00;99.90
6738;DHT22;3406;49.902;8.596;2022-12-20T05:13:13;3.00;99.90
6738;DHT22;3406;49.902;8.596;2022-12-20T05:15:42;3.00;99.90
6738;DHT22;3406;49.902;8.596;2022-12-20T05:18:09;3.00;99.90
6738;DHT22;3406;49.902;8.596;2022-12-20T05:20:36;3.10;99.90
6738;DHT22;3406;49.902;8.596;2022-12-20T05:23:02;3.10;99.90
6738;DHT22;3406;49.902;8.596;2022-12-20T05:25:49;3.10;99.90
6738;DHT22;3406;49.902;8.596;2022-12-20T05:28:35;3.10;99.90
6738;DHT22;3406;49.902;8.596;2022-12-20T05:31:03;3.00;99.90
6738;DHT22;3406;49.902;8.596;2022-12-20T05:33:30;3.10;99.90
6738;DHT22;3406;49.902;8.596;2022-12-20T05:35:56;3.10;99.90
6738;DHT22;3406;49.902;8.596;2022-12-20T05:38:23;3.10;99.90
6738;DHT22;3406;49.902;8.596;2022-12-20T05:40:50;3.10;99.90
6738;DHT22;3406;49.902;8.596;2022-12-20T05:43:18;3.20;99.90
6738;DHT22;3406;49.902;8.596;2022-12-20T05:45:45;3.10;99.90
6738;DHT22;3406;49.902;8.596;2022-12-20T05:48:14;3.10;99.90
6738;DHT22;3406;49.902;8.596;2022-12-20T05:50:41;3.20;99.90
6738;DHT22;3406;49.902;8.596;2022-12-20T05:53:09;3.20;99.90
6738;DHT22;3406;49.902;8.596;2022-12-20T05:55:36;3.20;99.90
6738;DHT22;3406;49.902;8.596;2022-12-20T05:58:05;3.30;99.90
6738;DHT22;3406;49.902;8.596;2022-12-20T06:00:31;3.30;99.90
6738;DHT22;3406;49.902;8.596;2022-12-20T06:02:58;3.30;99.90
6738;DHT22;3406;49.902;8.596;2022-12-20T06:05:26;3.30;99.90
6738;DHT22;3406;49.902;8.596;2022-12-20T06:07:53;3.30;99.90
6738;DHT22;3406;49.902;8.596;2022-12-20T06:10:20;3.30;99.90
6738;DHT22;3406;49.902;8.596;2022-12-20T06:12:46;3.30;99.90
6738;DHT22;3406;49.902;8.596;2022-12-20T06:15:13;3.30;99.90
6738;DHT22;3406;49.902;8.596;2022-12-20T06:17:40;3.30;99.90
6738;DHT22;3406;49.902;8.596;2022-12-20T06:20:08;3.30;99.90
6738;DHT22;3406;49.902;8.596;2022-12-20T06:22:37;3.30;99.90
6738;DHT22;3406;49.902;8.596;2022-12-20T06:25:05;3.30;99.90
6738;DHT22;3406;49.902;8.596;2022-12-20T06:27:33;3.20;99.90
6738;DHT22;3406;49.902;8.596;2022-12-20T06:30:00;3.20;99.90
6738;DHT22;3406;49.902;8.596;2022-12-20T06:32:27;3.20;99.90
6738;DHT22;3406;49.902;8.596;2022-12-20T06:34:53;3.30;99.90
6738;DHT22;3406;49.902;8.596;2022-12-20T06:37:20;3.30;99.90
6738;DHT22;3406;49.902;8.596;2022-12-20T06:39:48;3.30;99.90
6738;DHT22;3406;49.902;8.596;2022-12-20T06:42:15;3.30;99.90
6738;DHT22;3406;49.902;8.596;2022-12-20T06:44:42;3.30;99.90
6738;DHT22;3406;49.902;8.596;2022-12-20T06:47:09;3.30;99.90
6738;DHT22;3406;49.902;8.596;2022-12-20T06:49:35;3.30;99.90
6738;DHT22;3406;49.902;8.596;2022-12-20T06:52:02;3.30;99.90
6738;DHT22;3406;49.902;8.596;2022-12-20T06:54:29;3.30;99.90
6738;DHT22;3406;49.902;8.596;2022-12-20T06:56:57;3.30;99.90
6738;DHT22;3406;49.902;8.596;2022-12-20T06:59:24;3.40;99.90
6738;DHT22;3406;49.902;8.596;2022-12-20T07:01:51;3.30;99.90
6738;DHT22;3406;49.902;8.596;2022-12-20T07:04:17;3.30;99.90
6738;DHT22;3406;49.902;8.596;2022-12-20T07:06:45;3.40;99.90
6738;DHT22;3406;49.902;8.596;2022-12-20T07:09:11;3.40;99.90
6738;DHT22;3406;49.902;8.596;2022-12-20T07:11:38;3.40;99.90
6738;DHT22;3406;49.902;8.596;2022-12-20T07:14:06;3.40;99.90
6738;DHT22;3406;49.902;8.596;2022-12-20T07:16:33;3.40;99.90
6738;DHT22;3406;49.902;8.596;2022-12-20T07:19:00;3.40;99.90
6738;DHT22;3406;49.902;8.596;2022-12-20T07:21:27;3.50;99.90
6738;DHT22;3406;49.902;8.596;2022-12-20T07:23:54;3.50;99.90
6738;DHT22;3406;49.902;8.596;2022-12-20T07:26:21;3.40;99.90
6738;DHT22;3406;49.902;8.596;2022-12-20T07:28:48;3.40;99.90
6738;DHT22;3406;49.902;8.596;2022-12-20T07:31:15;3.40;99.90
6738;DHT22;3406;49.902;8.596;2022-12-20T07:33:42;3.40;99.90
6738;DHT22;3406;49.902;8.596;2022-12-20T07:36:10;3.40;99.90
6738;DHT22;3406;49.902;8.596;2022-12-20T07:38:38;3.40;99.90
6738;DHT22;3406;49.902;8.596;2022-12-20T07:41:06;3.40;99.90
6738;DHT22;3406;49.902;8.596;2022-12-20T07:43:33;3.40;99.90
6738;DHT22;3406;49.902;8.596;2022-12-20T07:46:00;3.40;99.90
6738;DHT22;3406;49.902;8.596;2022-12-20T07:48:28;3.40;99.90
6738;DHT22;3406;49.902;8.596;2022-12-20T07:50:58;3.40;99.90
6738;DHT22;3406;49.902;8.596;2022-12-20T07:53:27;3.40;99.90
6738;DHT22;3406;49.902;8.596;2022-12-20T07:55:56;3.50;99.90
6738;DHT22;3406;49.902;8.596;2022-12-20T07:58:24;3.50;99.90
6738;DHT22;3406;49.902;8.596;2022-12-20T08:00:51;3.60;99.90
6738;DHT22;3406;49.902;8.596;2022-12-20T08:03:20;3.60;99.90
6738;DHT22;3406;49.902;8.596;2022-12-20T08:05:52;3.60;99.90
6738;DHT22;3406;49.902;8.596;2022-12-20T08:08:20;3.60;99.90
6738;DHT22;3406;49.902;8.596;2022-12-20T08:10:47;3.70;99.90
6738;DHT22;3406;49.902;8.596;2022-12-20T08:13:14;3.70;99.90
6738;DHT22;3406;49.902;8.596;2022-12-20T08:15:41;3.70;99.90
6738;DHT22;3406;49.902;8.596;2022-12-20T08:18:08;3.70;99.90
6738;DHT22;3406;49.902;8.596;2022-12-20T08:20:34;3.80;99.90
6738;DHT22;3406;49.902;8.596;2022-12-20T08:23:03;3.80;99.90
6738;DHT22;3406;49.902;8.596;2022-12-20T08:25:30;3.80;99.90
6738;DHT22;3406;49.902;8.596;2022-12-20T08:27:56;3.80;99.90
6738;DHT22;3406;49.902;8.596;2022-12-20T08:30:26;3.80;99.90
6738;DHT22;3406;49.902;8.596;2022-12-20T08:32:53;3.80;99.90
6738;DHT22;3406;49.902;8.596;2022-12-20T08:35:19;3.80;99.90
6738;DHT22;3406;49.902;8.596;2022-12-20T08:37:46;3.90;99.90
6738;DHT22;3406;49.902;8.596;2022-12-20T08:40:14;3.90;99.90
6738;DHT22;3406;49.902;8.596;2022-12-20T08:42:41;4.00;99.90
6738;DHT22;3406;49.902;8.596;2022-12-20T08:45:08;4.00;99.90
6738;DHT22;3406;49.902;8.596;2022-12-20T08:47:35;4.10;99.90
6738;DHT22;3406;49.902;8.596;2022-12-20T08:50:02;4.10;99.90
6738;DHT22;3406;49.902;8.596;2022-12-20T08:52:29;4.10;99.90
6738;DHT22;3406;49.902;8.596;2022-12-20T08:54:56;4.20;99.90
6738;DHT22;3406;49.902;8.596;2022-12-20T08:57:24;4.20;99.90
6738;DHT22;3406;49.902;8.596;2022-12-20T08:59:51;4.20;99.90
6738;DHT22;3406;49.902;8.596;2022-12-20T09:02:17;4.30;99.90
6738;DHT22;3406;49.902;8.596;2022-12-20T09:04:44;4.30;99.90
6738;DHT22;3406;49.902;8.596;2022-12-20T09:07:11;4.30;99.90
6738;DHT22;3406;49.902;8.596;2022-12-20T09:09:38;4.20;99.90
6738;DHT22;3406;49.902;8.596;2022-12-20T09:12:05;4.20;99.90
6738;DHT22;3406;49.902;8.596;2022-12-20T09:14:33;4.30;99.90
6738;DHT22;3406;49.902;8.596;2022-12-20T09:17:00;4.30;99.90
6738;DHT22;3406;49.902;8.596;2022-12-20T09:19:26;4.40;99.90
6738;DHT22;3406;49.902;8.596;2022-12-20T09:21:53;4.50;99.90
6738;DHT22;3406;49.902;8.596;2022-12-20T09:24:20;4.50;99.90
6738;DHT22;3406;49.902;8.596;2022-12-20T09:26:47;4.50;99.90
6738;DHT22;3406;49.902;8.596;2022-12-20T09:29:14;4.50;99.90
6738;DHT22;3406;49.902;8.596;2022-12-20T09:31:41;4.50;99.90
6738;DHT22;3406;49.902;8.596;2022-12-20T09:34:08;4.40;99.90
6738;DHT22;3406;49.902;8.596;2022-12-20T09:36:35;4.40;99.90
6738;DHT22;3406;49.902;8.596;2022-12-20T09:39:02;4.40;99.90
6738;DHT22;3406;49.902;8.596;2022-12-20T09:41:32;4.40;99.90
6738;DHT22;3406;49.902;8.596;2022-12-20T09:44:04;4.40;99.90
6738;DHT22;3406;49.902;8.596;2022-12-20T09:46:33;4.50;99.90
6738;DHT22;3406;49.902;8.596;2022-12-20T09:49:01;4.50;99.90
6738;DHT22;3406;49.902;8.596;2022-12-20T09:51:42;4.60;99.90
6738;DHT22;3406;49.902;8.596;2022-12-20T09:54:19;4.60;99.90
6738;DHT22;3406;49.902;8.596;2022-12-20T09:56:57;4.70;99.90
6738;DHT22;3406;49.902;8.596;2022-12-20T09:59:25;4.70;99.90
6738;DHT22;3406;49.902;8.596;2022-12-20T10:01:52;4.80;99.90
6738;DHT22;3406;49.902;8.596;2022-12-20T10:04:22;4.80;99.90
6738;DHT22;3406;49.902;8.596;2022-12-20T10:07:05;4.80;99.90
6738;DHT22;3406;49.902;8.596;2022-12-20T10:09:48;4.80;99.90
6738;DHT22;3406;49.902;8.596;2022-12-20T10:12:25;4.80;99.90
6738;DHT22;3406;49.902;8.596;2022-12-20T10:15:03;4.80;99.90
6738;DHT22;3406;49.902;8.596;2022-12-20T10:17:43;4.90;99.90
6738;DHT22;3406;49.902;8.596;2022-12-20T10:23:09;4.90;99.90
6738;DHT22;3406;49.902;8.596;2022-12-20T10:25:39;5.00;99.90
6738;DHT22;3406;49.902;8.596;2022-12-20T10:28:11;5.00;99.90
6738;DHT22;3406;49.902;8.596;2022-12-20T10:30:40;5.00;99.90
6738;DHT22;3406;49.902;8.596;2022-12-20T10:33:15;5.10;99.90
6738;DHT22;3406;49.902;8.596;2022-12-20T10:35:45;5.10;99.90
6738;DHT22;3406;49.902;8.596;2022-12-20T10:38:13;5.20;99.90
6738;DHT22;3406;49.902;8.596;2022-12-20T10:40:44;5.40;99.90
6738;DHT22;3406;49.902;8.596;2022-12-20T10:43:15;5.40;99.90
6738;DHT22;3406;49.902;8.596;2022-12-20T10:45:43;5.50;99.90
6738;DHT22;3406;49.902;8.596;2022-12-20T10:48:25;5.50;99.90
6738;DHT22;3406;49.902;8.596;2022-12-20T10:51:00;5.50;99.90
6738;DHT22;3406;49.902;8.596;2022-12-20T10:53:27;5.50;99.90
6738;DHT22;3406;49.902;8.596;2022-12-20T10:56:15;5.50;99.90
6738;DHT22;3406;49.902;8.596;2022-12-20T10:58:51;5.50;99.90
6738;DHT22;3406;49.902;8.596;2022-12-20T11:01:19;5.50;99.90
6738;DHT22;3406;49.902;8.596;2022-12-20T11:03:52;5.60;99.90
6738;DHT22;3406;49.902;8.596;2022-12-20T11:06:23;5.60;99.90
6738;DHT22;3406;49.902;8.596;2022-12-20T11:08:50;5.70;99.90
6738;DHT22;3406;49.902;8.596;2022-12-20T11:11:19;5.70;99.90
6738;DHT22;3406;49.902;8.596;2022-12-20T11:13:47;5.70;99.90
6738;DHT22;3406;49.902;8.596;2022-12-20T11:16:27;5.70;99.90
6738;DHT22;3406;49.902;8.596;2022-12-20T11:19:05;5.80;99.90
6738;DHT22;3406;49.902;8.596;2022-12-20T11:21:41;5.80;99.90
6738;DHT22;3406;49.902;8.596;2022-12-20T11:24:13;5.90;99.90
6738;DHT22;3406;49.902;8.596;2022-12-20T11:26:53;5.90;99.90
6738;DHT22;3406;49.902;8.596;2022-12-20T11:29:52;6.00;99.90
6738;DHT22;3406;49.902;8.596;2022-12-20T11:32:32;6.10;99.90
6738;DHT22;3406;49.902;8.596;2022-12-20T11:35:10;6.10;99.90
6738;DHT22;3406;49.902;8.596;2022-12-20T11:37:45;6.20;99.90
6738;DHT22;3406;49.902;8.596;2022-12-20T11:40:26;6.20;99.90
6738;DHT22;3406;49.902;8.596;2022-12-20T11:43:03;6.30;99.90
6738;DHT22;3406;49.902;8.596;2022-12-20T11:45:41;6.30;99.90
6738;DHT22;3406;49.902;8.596;2022-12-20T11:48:26;6.30;99.90
6738;DHT22;3406;49.902;8.596;2022-12-20T11:51:02;6.40;99.90
6738;DHT22;3406;49.902;8.596;2022-12-20T11:53:36;6.40;99.90
6738;DHT22;3406;49.902;8.596;2022-12-20T11:56:07;6.40;99.90
6738;DHT22;3406;49.902;8.596;2022-12-20T11:58:45;6.40;99.90
6738;DHT22;3406;49.902;8.596;2022-12-20T12:01:16;6.50;99.90
6738;DHT22;3406;49.902;8.596;2022-12-20T12:03:49;6.60;99.90
6738;DHT22;3406;49.902;8.596;2022-12-20T12:06:23;6.60;99.90
6738;DHT22;3406;49.902;8.596;2022-12-20T12:09:00;6.60;99.90
6738;DHT22;3406;49.902;8.596;2022-12-20T12:11:32;6.60;99.90
6738;DHT22;3406;49.902;8.596;2022-12-20T12:14:01;6.60;99.90
6738;DHT22;3406;49.902;8.596;2022-12-20T12:16:33;6.70;99.90
6738;DHT22;3406;49.902;8.596;2022-12-20T12:19:01;6.70;99.90
6738;DHT22;3406;49.902;8.596;2022-12-20T12:24:54;6.70;99.90
6738;DHT22;3406;49.902;8.596;2022-12-20T12:27:25;6.70;99.90
6738;DHT22;3406;49.902;8.596;2022-12-20T12:29:53;6.70;99.90
6738;DHT22;3406;49.902;8.596;2022-12-20T12:32:27;6.80;99.90
6738;DHT22;3406;49.902;8.596;2022-12-20T12:35:12;6.80;99.90
6738;DHT22;3406;49.902;8.596;2022-12-20T12:37:53;6.80;99.90
6738;DHT22;3406;49.902;8.596;2022-12-20T12:43:49;6.80;99.90
6738;DHT22;3406;49.902;8.596;2022-12-20T12:46:18;6.80;99.90
6738;DHT22;3406;49.902;8.596;2022-12-20T12:48:54;6.70;99.90
6738;DHT22;3406;49.902;8.596;2022-12-20T12:51:26;6.70;99.90
6738;DHT22;3406;49.902;8.596;2022-12-20T12:54:02;6.60;99.90
6738;DHT22;3406;49.902;8.596;2022-12-20T12:56:38;6.70;99.90
6738;DHT22;3406;49.902;8.596;2022-12-20T12:59:38;6.70;99.90
6738;DHT22;3406;49.902;8.596;2022-12-20T13:02:25;6.70;99.90
6738;DHT22;3406;49.902;8.596;2022-12-20T13:04:54;6.80;99.90
6738;DHT22;3406;49.902;8.596;2022-12-20T13:07:27;6.80;99.90
6738;DHT22;3406;49.902;8.596;2022-12-20T13:09:55;6.90;99.90
6738;DHT22;3406;49.902;8.596;2022-12-20T13:12:47;6.90;99.90
6738;DHT22;3406;49.902;8.596;2022-12-20T13:15:47;6.90;99.90
6738;DHT22;3406;49.902;8.596;2022-12-20T13:18:25;7.00;99.90
6738;DHT22;3406;49.902;8.596;2022-12-20T13:21:17;7.10;99.90
6738;DHT22;3406;49.902;8.596;2022-12-20T13:26:56;7.10;99.90
6738;DHT22;3406;49.902;8.596;2022-12-20T13:29:25;7.10;99.90
6738;DHT22;3406;49.902;8.596;2022-12-20T13:31:54;7.00;99.90
6738;DHT22;3406;49.902;8.596;2022-12-20T13:34:42;7.00;99.90
6738;DHT22;3406;49.902;8.596;2022-12-20T13:37:28;7.00;99.90
6738;DHT22;3406;49.902;8.596;2022-12-20T13:39:55;7.00;99.90
6738;DHT22;3406;49.902;8.596;2022-12-20T13:42:32;7.00;99.90
6738;DHT22;3406;49.902;8.596;2022-12-20T13:45:02;6.90;99.90
6738;DHT22;3406;49.902;8.596;2022-12-20T13:47:41;6.90;99.90
6738;DHT22;3406;49.902;8.596;2022-12-20T13:50:31;6.90;99.90
6738;DHT22;3406;49.902;8.596;2022-12-20T13:53:00;6.90;99.90
6738;DHT22;3406;49.902;8.596;2022-12-20T13:55:34;6.90;99.90
6738;DHT22;3406;49.902;8.596;2022-12-20T13:58:08;6.80;99.90
6738;DHT22;3406;49.902;8.596;2022-12-20T14:00:36;6.80;99.90
6738;DHT22;3406;49.902;8.596;2022-12-20T14:03:14;6.80;99.90
6738;DHT22;3406;49.902;8.596;2022-12-20T14:05:43;6.80;99.90
6738;DHT22;3406;49.902;8.596;2022-12-20T14:08:14;6.70;99.90
6738;DHT22;3406;49.902;8.596;2022-12-20T14:10:41;6.70;99.90
6738;DHT22;3406;49.902;8.596;2022-12-20T14:13:19;6.70;99.90
6738;DHT22;3406;49.902;8.596;2022-12-20T14:15:46;6.70;99.90
6738;DHT22;3406;49.902;8.596;2022-12-20T14:18:17;6.80;99.90
6738;DHT22;3406;49.902;8.596;2022-12-20T14:20:47;6.80;99.90
6738;DHT22;3406;49.902;8.596;2022-12-20T14:23:16;6.80;99.90
6738;DHT22;3406;49.902;8.596;2022-12-20T14:25:48;6.80;99.90
6738;DHT22;3406;49.902;8.596;2022-12-20T14:28:28;6.80;99.90
6738;DHT22;3406;49.902;8.596;2022-12-20T14:30:58;6.70;99.90
6738;DHT22;3406;49.902;8.596;2022-12-20T14:33:30;6.70;99.90
6738;DHT22;3406;49.902;8.596;2022-12-20T14:36:15;6.70;99.90
6738;DHT22;3406;49.902;8.596;2022-12-20T14:38:44;6.70;99.90
6738;DHT22;3406;49.902;8.596;2022-12-20T14:41:33;6.60;99.90
6738;DHT22;3406;49.902;8.596;2022-12-20T14:44:03;6.70;99.90
6738;DHT22;3406;49.902;8.596;2022-12-20T14:46:38;6.70;99.90
6738;DHT22;3406;49.902;8.596;2022-12-20T14:49:17;6.70;99.90
6738;DHT22;3406;49.902;8.596;2022-12-20T14:51:46;6.70;99.90
6738;DHT22;3406;49.902;8.596;2022-12-20T14:54:17;6.70;99.90
6738;DHT22;3406;49.902;8.596;2022-12-20T14:56:45;6.70;99.90
6738;DHT22;3406;49.902;8.596;2022-12-20T14:59:13;6.70;99.90
6738;DHT22;3406;49.902;8.596;2022-12-20T15:01:41;6.70;99.90
6738;DHT22;3406;49.902;8.596;2022-12-20T15:04:24;6.70;99.90
6738;DHT22;3406;49.902;8.596;2022-12-20T15:06:55;6.70;99.90
6738;DHT22;3406;49.902;8.596;2022-12-20T15:09:22;6.60;99.90
6738;DHT22;3406;49.902;8.596;2022-12-20T15:11:49;6.60;99.90
6738;DHT22;3406;49.902;8.596;2022-12-20T15:14:30;6.60;99.90
6738;DHT22;3406;49.902;8.596;2022-12-20T15:16:58;6.60;99.90
6738;DHT22;3406;49.902;8.596;2022-12-20T15:19:26;6.50;99.90
6738;DHT22;3406;49.902;8.596;2022-12-20T15:21:53;6.50;99.90
6738;DHT22;3406;49.902;8.596;2022-12-20T15:24:23;6.50;99.90
6738;DHT22;3406;49.902;8.596;2022-12-20T15:26:50;6.40;99.90
6738;DHT22;3406;49.902;8.596;2022-12-20T15:29:19;6.40;99.90
6738;DHT22;3406;49.902;8.596;2022-12-20T15:31:46;6.30;99.90
6738;DHT22;3406;49.902;8.596;2022-12-20T15:34:17;6.30;99.90
6738;DHT22;3406;49.902;8.596;2022-12-20T15:36:46;6.30;99.90
6738;DHT22;3406;49.902;8.596;2022-12-20T15:39:13;6.30;99.90
6738;DHT22;3406;49.902;8.596;2022-12-20T15:41:42;6.30;99.90
6738;DHT22;3406;49.902;8.596;2022-12-20T15:44:13;6.20;99.90
6738;DHT22;3406;49.902;8.596;2022-12-20T15:46:40;6.20;99.90
6738;DHT22;3406;49.902;8.596;2022-12-20T15:49:11;6.20;99.90
6738;DHT22;3406;49.902;8.596;2022-12-20T15:51:38;6.20;99.90
6738;DHT22;3406;49.902;8.596;2022-12-20T15:54:16;6.20;99.90
6738;DHT22;3406;49.902;8.596;2022-12-20T15:56:46;6.20;99.90
6738;DHT22;3406;49.902;8.596;2022-12-20T15:59:12;6.10;99.90
6738;DHT22;3406;49.902;8.596;2022-12-20T16:01:39;6.10;99.90
6738;DHT22;3406;49.902;8.596;2022-12-20T16:04:07;6.10;99.90
6738;DHT22;3406;49.902;8.596;2022-12-20T16:06:38;6.10;99.90
6738;DHT22;3406;49.902;8.596;2022-12-20T16:09:04;6.00;99.90
6738;DHT22;3406;49.902;8.596;2022-12-20T16:11:32;6.00;99.90
6738;DHT22;3406;49.902;8.596;2022-12-20T16:13:59;6.00;99.90
6738;DHT22;3406;49.902;8.596;2022-12-20T16:16:28;6.00;99.90
6738;DHT22;3406;49.902;8.596;2022-12-20T16:18:55;6.00;99.90
6738;DHT22;3406;49.902;8.596;2022-12-20T16:21:23;6.00;99.90
6738;DHT22;3406;49.902;8.596;2022-12-20T16:23:51;5.90;99.90
6738;DHT22;3406;49.902;8.596;2022-12-20T16:26:19;5.90;99.90
6738;DHT22;3406;49.902;8.596;2022-12-20T16:28:49;5.90;99.90
6738;DHT22;3406;49.902;8.596;2022-12-20T16:31:20;5.90;99.90
6738;DHT22;3406;49.902;8.596;2022-12-20T16:33:48;5.90;99.90
6738;DHT22;3406;49.902;8.596;2022-12-20T16:36:15;6.00;99.90
6738;DHT22;3406;49.902;8.596;2022-12-20T16:38:41;5.90;99.90
6738;DHT22;3406;49.902;8.596;2022-12-20T16:41:12;6.00;99.90
6738;DHT22;3406;49.902;8.596;2022-12-20T16:43:38;6.00;99.90
6738;DHT22;3406;49.902;8.596;2022-12-20T16:46:09;6.00;99.90
6738;DHT22;3406;49.902;8.596;2022-12-20T16:48:36;6.00;99.90
6738;DHT22;3406;49.902;8.596;2022-12-20T16:51:05;6.00;99.90
6738;DHT22;3406;49.902;8.596;2022-12-20T16:53:39;6.00;99.90
6738;DHT22;3406;49.902;8.596;2022-12-20T16:56:06;6.00;99.90